createdAt,value
2022-12-05T00:01:37.641Z,66.20
2022-12-05T00:04:08.584Z,82.23
2022-12-05T00:06:38.192Z,68.70
2022-12-05T00:09:07.707Z,67.87
2022-12-05T00:11:37.702Z,70.37
2022-12-05T00:14:06.489Z,64.23
2022-12-05T00:16:35.864Z,65.83
2022-12-05T00:19:05.033Z,66.23
2022-12-05T00:21:34.579Z,69.10
2022-12-05T00:24:03.997Z,68.77
2022-12-05T00:26:32.229Z,63.03
2022-12-05T00:29:00.068Z,67.23
2022-12-05T00:31:28.420Z,60.77
2022-12-05T00:33:56.426Z,68.07
2022-12-05T00:36:27.204Z,68.73
2022-12-05T00:38:55.670Z,62.60
2022-12-05T00:41:25.344Z,67.03
2022-12-05T00:43:53.744Z,64.70
2022-12-05T00:46:23.366Z,64.23
2022-12-05T00:48:52.638Z,63.87
2022-12-05T00:51:28.732Z,64.40
2022-12-05T00:54:02.509Z,60.67
2022-12-05T00:56:32.507Z,60.43
2022-12-05T00:59:01.543Z,62.10
2022-12-05T01:01:35.326Z,60.03
2022-12-05T01:04:06.082Z,59.00
2022-12-05T01:06:33.780Z,56.80
2022-12-05T01:09:04.174Z,60.23
2022-12-05T01:11:35.055Z,56.27
2022-12-05T01:14:12.020Z,56.83
2022-12-05T01:16:41.668Z,55.90
2022-12-05T01:19:14.099Z,53.37
2022-12-05T01:21:42.168Z,57.93
2022-12-05T01:24:11.429Z,57.00
2022-12-05T01:26:40.512Z,57.00
2022-12-05T01:29:08.019Z,57.53
2022-12-05T01:31:37.477Z,55.97
2022-12-05T01:34:07.019Z,53.23
2022-12-05T01:36:34.682Z,54.93
2022-12-05T01:39:02.502Z,53.13
2022-12-05T01:41:32.922Z,53.67
2022-12-05T01:44:05.260Z,51.87
2022-12-05T01:46:44.426Z,50.87
2022-12-05T01:49:20.266Z,53.10
2022-12-05T01:51:50.476Z,52.27
2022-12-05T01:54:20.001Z,51.03
2022-12-05T01:56:56.349Z,49.53
2022-12-05T01:59:26.120Z,47.97
2022-12-05T02:01:54.448Z,53.60
2022-12-05T02:04:22.022Z,51.10
2022-12-05T02:06:49.562Z,52.00
2022-12-05T02:09:16.859Z,49.10
2022-12-05T02:11:54.662Z,48.60
2022-12-05T02:14:34.242Z,48.10
2022-12-05T02:17:31.022Z,47.33
2022-12-05T02:20:16.748Z,49.87
2022-12-05T02:22:59.446Z,49.63
2022-12-05T02:25:52.882Z,48.00
2022-12-05T02:28:28.746Z,51.90
2022-12-05T02:31:08.833Z,48.67
2022-12-05T02:33:45.315Z,50.23
2022-12-05T02:36:24.542Z,51.17
2022-12-05T02:38:59.780Z,49.47
2022-12-05T02:41:43.555Z,51.57
2022-12-05T02:44:23.115Z,50.07
2022-12-05T02:46:52.735Z,48.97
2022-12-05T02:49:25.631Z,49.23
2022-12-05T02:52:02.395Z,49.67
2022-12-05T02:54:35.690Z,48.53
2022-12-05T02:57:05.200Z,50.00
2022-12-05T02:59:32.533Z,53.97
2022-12-05T03:01:59.994Z,49.67
2022-12-05T03:04:30.918Z,48.57
2022-12-05T03:07:00.764Z,50.10
2022-12-05T03:09:35.852Z,50.20
2022-12-05T03:12:14.889Z,48.73
2022-12-05T03:14:51.721Z,52.60
2022-12-05T03:17:27.074Z,47.27
2022-12-05T03:20:06.437Z,46.60
2022-12-05T03:22:41.960Z,47.67
2022-12-05T03:25:13.405Z,45.27
2022-12-05T03:27:41.178Z,45.43
2022-12-05T03:30:12.882Z,46.83
2022-12-05T03:32:49.312Z,44.87
2022-12-05T03:35:37.810Z,47.83
2022-12-05T03:38:35.441Z,46.33
2022-12-05T03:41:10.052Z,45.57
2022-12-05T03:43:55.641Z,46.63
2022-12-05T03:46:32.103Z,44.97
2022-12-05T03:49:16.258Z,46.23
2022-12-05T03:52:06.867Z,45.27
2022-12-05T03:54:44.249Z,45.37
2022-12-05T03:57:44.373Z,46.80
2022-12-05T04:00:16.167Z,47.20
2022-12-05T04:02:48.212Z,45.47
2022-12-05T04:05:19.101Z,46.77
2022-12-05T04:07:50.226Z,46.43
2022-12-05T04:10:24.324Z,44.70
2022-12-05T04:12:55.390Z,45.57
2022-12-05T04:15:52.412Z,45.13
2022-12-05T04:18:23.330Z,44.23
2022-12-05T04:21:11.364Z,46.37
2022-12-05T04:23:41.398Z,45.67
2022-12-05T04:26:27.297Z,47.17
2022-12-05T04:29:26.219Z,45.63
2022-12-05T04:31:58.849Z,45.87
2022-12-05T04:34:29.664Z,46.47
2022-12-05T04:37:03.074Z,46.40
2022-12-05T04:39:46.063Z,44.73
2022-12-05T04:42:23.126Z,49.23
2022-12-05T04:45:08.695Z,45.43
2022-12-05T04:47:43.564Z,46.57
2022-12-05T04:50:12.779Z,49.87
2022-12-05T04:52:41.304Z,49.10
2022-12-05T04:55:12.642Z,46.50
2022-12-05T04:57:57.817Z,54.17
2022-12-05T05:00:26.108Z,49.13
2022-12-05T05:03:00.859Z,51.17
2022-12-05T05:05:29.407Z,47.33
2022-12-05T05:07:57.767Z,50.33
2022-12-05T05:10:40.108Z,50.80
2022-12-05T05:13:07.970Z,46.47
2022-12-05T05:15:35.300Z,50.50
2022-12-05T05:18:02.707Z,48.77
2022-12-05T05:20:32.078Z,50.00
2022-12-05T05:22:59.437Z,59.70
2022-12-05T05:25:26.983Z,70.43
2022-12-05T05:27:56.323Z,51.07
2022-12-05T05:30:25.198Z,52.97
2022-12-05T05:32:52.864Z,49.50
2022-12-05T05:35:22.061Z,52.67
2022-12-05T05:37:49.421Z,48.60
2022-12-05T05:40:17.000Z,47.07
2022-12-05T05:42:49.169Z,48.73
2022-12-05T05:45:17.311Z,48.17
2022-12-05T05:47:45.044Z,46.00
2022-12-05T05:50:19.529Z,49.33
2022-12-05T05:52:48.689Z,51.33
2022-12-05T05:55:15.967Z,48.43
2022-12-05T05:57:43.535Z,50.63
2022-12-05T06:00:12.050Z,47.20
2022-12-05T06:02:39.496Z,56.87
2022-12-05T06:05:07.348Z,55.13
2022-12-05T06:07:35.072Z,53.43
2022-12-05T06:10:02.605Z,61.50
2022-12-05T06:12:30.110Z,62.77
2022-12-05T06:14:57.879Z,52.57
2022-12-05T06:17:25.245Z,44.07
2022-12-05T06:19:52.833Z,43.73
2022-12-05T06:22:20.414Z,47.40
2022-12-05T06:24:48.963Z,45.93
2022-12-05T06:27:16.645Z,51.07
2022-12-05T06:29:44.107Z,50.20
2022-12-05T06:32:11.456Z,46.30
2022-12-05T06:34:39.065Z,49.67
2022-12-05T06:37:07.382Z,56.93
2022-12-05T06:39:34.976Z,52.93
2022-12-05T06:42:02.922Z,50.93
2022-12-05T06:44:30.575Z,69.87
2022-12-05T06:46:58.218Z,73.77
2022-12-05T06:49:31.702Z,56.60
2022-12-05T06:52:01.152Z,47.07
2022-12-05T06:54:28.603Z,46.57
2022-12-05T06:56:55.994Z,52.40
2022-12-05T06:59:23.415Z,58.00
2022-12-05T07:01:50.923Z,54.80
2022-12-05T07:04:24.469Z,58.50
2022-12-05T07:06:53.192Z,60.67
2022-12-05T07:09:46.207Z,86.83
2022-12-05T07:12:16.729Z,65.10
2022-12-05T07:14:49.103Z,61.70
2022-12-05T07:17:18.938Z,71.97
2022-12-05T07:19:51.848Z,69.90
2022-12-05T07:22:21.542Z,65.03
2022-12-05T07:24:51.423Z,68.30
2022-12-05T07:27:25.124Z,55.67
2022-12-05T07:29:57.237Z,72.80
2022-12-05T07:32:25.089Z,74.13
2022-12-05T07:34:55.534Z,68.20
2022-12-05T07:37:24.346Z,62.57
2022-12-05T07:39:53.456Z,62.10
2022-12-05T07:42:21.105Z,61.70
2022-12-05T07:44:49.124Z,63.53
2022-12-05T07:47:16.710Z,56.87
2022-12-05T07:49:43.991Z,57.67
2022-12-05T07:52:11.491Z,57.50
2022-12-05T07:54:39.055Z,57.43
2022-12-05T07:57:06.630Z,66.60
2022-12-05T07:59:34.043Z,51.93
2022-12-05T08:02:01.378Z,51.60
2022-12-05T08:04:28.741Z,51.27
2022-12-05T08:06:56.096Z,63.10
2022-12-05T08:09:23.556Z,67.43
2022-12-05T08:11:52.836Z,63.23
2022-12-05T08:14:20.497Z,52.77
2022-12-05T08:16:47.975Z,64.60
2022-12-05T08:19:17.301Z,61.97
2022-12-05T08:21:44.962Z,53.80
2022-12-05T08:24:12.719Z,58.57
2022-12-05T08:26:42.634Z,54.47
2022-12-05T08:29:13.346Z,51.87
2022-12-05T08:31:44.620Z,54.67
2022-12-05T08:34:13.387Z,52.20
2022-12-05T08:36:41.774Z,59.67
2022-12-05T08:39:14.560Z,57.80
2022-12-05T08:41:42.702Z,52.80
2022-12-05T08:44:16.542Z,48.50
2022-12-05T08:46:45.691Z,48.53
2022-12-05T08:49:13.823Z,53.40
2022-12-05T08:51:42.781Z,48.70
2022-12-05T08:54:10.881Z,47.50
2022-12-05T08:56:38.940Z,46.57
2022-12-05T08:59:06.901Z,51.83
2022-12-05T09:01:37.323Z,53.47
2022-12-05T09:04:06.007Z,58.73
2022-12-05T09:06:34.825Z,52.33
2022-12-05T09:09:06.037Z,44.37
2022-12-05T09:11:37.221Z,49.57
2022-12-05T09:14:05.711Z,50.80
2022-12-05T09:16:38.396Z,49.63
2022-12-05T09:19:15.362Z,47.90
2022-12-05T09:21:43.613Z,46.27
2022-12-05T09:24:12.886Z,42.90
2022-12-05T09:26:41.062Z,48.73
2022-12-05T09:29:15.752Z,43.63
2022-12-05T09:31:44.809Z,45.77
2022-12-05T09:34:14.465Z,42.13
2022-12-05T09:36:41.951Z,46.27
2022-12-05T09:39:10.512Z,50.47
2022-12-05T09:42:25.947Z,40.40
2022-12-05T09:45:18.258Z,59.40
2022-12-05T09:48:14.781Z,57.63
2022-12-05T09:51:01.812Z,72.67
2022-12-05T09:53:39.141Z,54.70
2022-12-05T09:56:15.980Z,50.87
2022-12-05T09:58:49.263Z,39.53
2022-12-05T10:01:44.488Z,40.97
2022-12-05T10:04:45.292Z,39.30
2022-12-05T10:07:25.062Z,38.30
2022-12-05T10:10:49.030Z,40.37
2022-12-05T10:13:59.190Z,43.20
2022-12-05T10:16:35.353Z,35.87
2022-12-05T10:19:14.897Z,39.77
2022-12-05T10:22:01.309Z,46.30
2022-12-05T10:24:41.348Z,45.33
2022-12-05T10:27:13.415Z,49.47
2022-12-05T10:30:00.447Z,47.20
2022-12-05T10:32:41.540Z,46.87
2022-12-05T10:35:35.497Z,44.07
2022-12-05T10:38:31.753Z,38.73
2022-12-05T10:41:04.939Z,38.10
2022-12-05T10:43:34.192Z,38.20
2022-12-05T10:46:03.000Z,37.20
2022-12-05T10:48:32.100Z,40.33
2022-12-05T10:51:00.958Z,53.23
2022-12-05T10:53:40.094Z,40.93
2022-12-05T10:56:41.704Z,40.50
2022-12-05T10:59:16.729Z,42.13
2022-12-05T11:01:58.675Z,44.80
2022-12-05T11:04:43.890Z,45.80
2022-12-05T11:07:30.470Z,39.60
2022-12-05T11:10:02.597Z,35.20
2022-12-05T11:12:39.824Z,37.73
2022-12-05T11:15:28.365Z,36.07
2022-12-05T11:17:58.001Z,51.20
2022-12-05T11:20:25.456Z,43.33
2022-12-05T11:22:57.240Z,40.93
2022-12-05T11:25:29.150Z,44.93
2022-12-05T11:28:01.190Z,41.13
2022-12-05T11:30:30.096Z,41.77
2022-12-05T11:33:17.520Z,41.50
2022-12-05T11:35:47.271Z,41.37
2022-12-05T11:38:17.566Z,42.93
2022-12-05T11:41:14.570Z,46.03
2022-12-05T11:43:53.844Z,45.03
2022-12-05T11:46:29.973Z,41.93
2022-12-05T11:49:38.685Z,42.57
2022-12-05T11:52:24.720Z,39.20
2022-12-05T11:55:05.320Z,34.37
2022-12-05T11:57:52.710Z,36.20
2022-12-05T12:00:27.949Z,34.47
2022-12-05T12:03:17.206Z,35.03
2022-12-05T12:05:51.159Z,36.60
2022-12-05T12:08:26.575Z,37.90
2022-12-05T12:11:11.519Z,36.40
2022-12-05T12:14:03.417Z,36.17
2022-12-05T12:17:02.755Z,32.33
2022-12-05T12:20:03.555Z,34.17
2022-12-05T12:22:46.852Z,32.90
2022-12-05T12:25:43.210Z,33.17
2022-12-05T12:28:22.216Z,34.67
2022-12-05T12:31:09.000Z,32.93
2022-12-05T12:33:59.418Z,31.40
2022-12-05T12:36:30.918Z,32.30
2022-12-05T12:39:10.414Z,32.03
2022-12-05T12:42:13.210Z,32.17
2022-12-05T12:45:17.514Z,39.00
2022-12-05T12:48:18.779Z,37.80
2022-12-05T12:50:55.151Z,44.67
2022-12-05T12:53:28.967Z,40.93
2022-12-05T12:55:56.605Z,36.87
2022-12-05T12:58:56.121Z,35.97
2022-12-05T13:01:29.667Z,40.63
2022-12-05T13:04:07.553Z,36.00
2022-12-05T13:06:47.098Z,34.40
2022-12-05T13:09:32.310Z,37.47
2022-12-05T13:12:06.857Z,37.27
2022-12-05T13:14:36.919Z,38.80
2022-12-05T13:17:07.236Z,35.77
2022-12-05T13:19:49.442Z,36.23
2022-12-05T13:22:19.790Z,35.43
2022-12-05T13:24:47.632Z,35.90
2022-12-05T13:27:21.441Z,37.53
2022-12-05T13:29:57.277Z,35.33
2022-12-05T13:32:32.231Z,36.40
2022-12-05T13:35:08.448Z,35.83
2022-12-05T13:37:55.320Z,38.60
2022-12-05T13:40:47.507Z,35.87
2022-12-05T13:43:24.128Z,37.13
2022-12-05T13:46:23.078Z,36.23
2022-12-05T13:49:05.111Z,36.33
2022-12-05T13:51:37.414Z,38.87
2022-12-05T13:54:17.177Z,36.07
2022-12-05T13:57:02.207Z,36.43
2022-12-05T14:00:01.071Z,39.47
2022-12-05T14:02:43.896Z,38.43
2022-12-05T14:05:21.963Z,39.77
2022-12-05T14:08:01.061Z,39.50
2022-12-05T14:10:29.590Z,39.07
2022-12-05T14:13:01.527Z,40.90
2022-12-05T14:15:43.850Z,42.10
2022-12-05T14:18:35.674Z,40.27
2022-12-05T14:21:11.839Z,39.87
2022-12-05T14:23:59.744Z,41.33
2022-12-05T14:26:56.029Z,42.27
2022-12-05T14:29:26.322Z,41.80
2022-12-05T14:32:23.547Z,44.10
2022-12-05T14:35:20.036Z,44.80
2022-12-05T14:37:56.305Z,43.80
2022-12-05T14:40:38.683Z,44.53
2022-12-05T14:43:34.705Z,43.97
2022-12-05T14:46:03.709Z,107.60
2022-12-05T14:48:35.167Z,68.20
2022-12-05T14:51:05.160Z,61.70
2022-12-05T14:53:51.163Z,70.17
2022-12-05T14:56:20.759Z,55.00
2022-12-05T14:58:52.577Z,44.90
2022-12-05T15:01:22.586Z,47.97
2022-12-05T15:04:14.969Z,48.63
2022-12-05T15:06:54.127Z,48.80
2022-12-05T15:09:45.649Z,48.77
2022-12-05T15:12:20.802Z,46.13
2022-12-05T15:14:54.477Z,49.23
2022-12-05T15:17:27.870Z,46.70
2022-12-05T15:20:06.091Z,45.63
2022-12-05T15:22:37.951Z,46.83
2022-12-05T15:25:26.111Z,46.73
2022-12-05T15:28:06.314Z,46.77
2022-12-05T15:30:38.418Z,50.93
2022-12-05T15:33:10.938Z,48.27
2022-12-05T15:35:38.817Z,47.63
2022-12-05T15:38:29.850Z,46.73
2022-12-05T15:40:57.145Z,47.30
2022-12-05T15:43:28.990Z,47.93
2022-12-05T15:46:14.907Z,50.07
2022-12-05T15:48:42.512Z,52.07
2022-12-05T15:51:09.807Z,50.47
2022-12-05T15:53:52.001Z,54.07
2022-12-05T15:56:31.024Z,50.87
2022-12-05T15:59:19.814Z,54.23
2022-12-05T16:01:52.445Z,55.40
2022-12-05T16:04:31.106Z,54.03
2022-12-05T16:07:00.818Z,53.23
2022-12-05T16:09:32.326Z,50.07
2022-12-05T16:12:05.960Z,51.57
2022-12-05T16:15:00.262Z,54.50
2022-12-05T16:17:31.424Z,52.57
2022-12-05T16:20:17.340Z,50.87
2022-12-05T16:22:57.289Z,50.90
2022-12-05T16:25:30.797Z,48.27
2022-12-05T16:28:08.604Z,47.73
2022-12-05T16:30:37.639Z,74.83
2022-12-05T16:33:16.480Z,122.57
2022-12-05T16:35:46.338Z,118.70
2022-12-05T16:38:30.198Z,140.00
2022-12-05T16:41:03.333Z,117.87
2022-12-05T16:43:33.619Z,125.60
2022-12-05T16:46:15.901Z,128.40
2022-12-05T16:49:07.777Z,149.90
2022-12-05T16:51:42.537Z,127.00
2022-12-05T16:54:09.913Z,164.37
2022-12-05T16:56:38.084Z,193.33
2022-12-05T16:59:07.298Z,164.90
2022-12-05T17:01:39.214Z,145.10
2022-12-05T17:04:11.254Z,145.10
2022-12-05T17:06:39.988Z,141.37
2022-12-05T17:09:07.502Z,130.90
2022-12-05T17:11:37.333Z,115.63
2022-12-05T17:14:07.775Z,107.23
2022-12-05T17:16:35.197Z,105.13
2022-12-05T17:19:02.791Z,101.60
2022-12-05T17:21:33.219Z,104.30
2022-12-05T17:24:01.159Z,88.13
2022-12-05T17:26:28.572Z,88.30
2022-12-05T17:28:57.076Z,91.57
2022-12-05T17:31:26.202Z,87.43
2022-12-05T17:33:54.665Z,90.13
2022-12-05T17:36:22.044Z,84.90
2022-12-05T17:38:50.104Z,79.33
2022-12-05T17:41:23.884Z,75.27
2022-12-05T17:43:52.043Z,77.03
2022-12-05T17:46:22.421Z,82.43
2022-12-05T17:48:51.378Z,75.83
2022-12-05T17:51:20.163Z,77.87
2022-12-05T17:53:48.043Z,77.40
2022-12-05T17:56:15.908Z,76.90
2022-12-05T17:58:43.230Z,71.93
2022-12-05T18:01:16.001Z,70.30
2022-12-05T18:03:43.652Z,64.97
2022-12-05T18:06:11.363Z,55.80
2022-12-05T18:08:44.256Z,51.90
2022-12-05T18:11:15.769Z,56.63
2022-12-05T18:13:43.033Z,97.57
2022-12-05T18:16:10.729Z,79.87
2022-12-05T18:18:38.716Z,80.27
2022-12-05T18:21:12.252Z,83.37
2022-12-05T18:23:40.840Z,77.10
2022-12-05T18:26:10.384Z,69.57
2022-12-05T18:28:39.486Z,73.33
2022-12-05T18:31:09.333Z,80.53
2022-12-05T18:33:37.118Z,65.43
2022-12-05T18:36:09.842Z,60.37
2022-12-05T18:38:38.107Z,63.47
2022-12-05T18:41:07.204Z,61.30
2022-12-05T18:43:35.238Z,61.67
2022-12-05T18:46:06.531Z,57.27
2022-12-05T18:48:41.602Z,55.70
2022-12-05T18:51:13.086Z,56.73
2022-12-05T18:53:41.396Z,56.10
2022-12-05T18:56:27.455Z,54.60
2022-12-05T18:58:59.834Z,70.83
2022-12-05T19:01:28.824Z,62.87
2022-12-05T19:04:01.585Z,72.33
2022-12-05T19:06:32.272Z,174.43
2022-12-05T19:09:03.251Z,145.57
2022-12-05T19:11:30.594Z,115.57
2022-12-05T19:13:59.788Z,108.77
2022-12-05T19:16:29.078Z,105.03
2022-12-05T19:19:01.876Z,98.47
2022-12-05T19:21:33.008Z,125.40
2022-12-05T19:24:02.306Z,103.90
2022-12-05T19:26:29.800Z,107.50
2022-12-05T19:28:57.626Z,95.20
2022-12-05T19:31:26.755Z,78.00
2022-12-05T19:34:01.108Z,78.93
2022-12-05T19:36:32.353Z,101.07
2022-12-05T19:39:00.281Z,137.03
2022-12-05T19:41:31.004Z,109.93
2022-12-05T19:44:02.217Z,99.77
2022-12-05T19:46:31.138Z,78.13
2022-12-05T19:49:03.661Z,82.93
2022-12-05T19:51:33.059Z,50.73
2022-12-05T19:54:02.739Z,45.50
2022-12-05T19:56:31.671Z,43.80
2022-12-05T19:59:00.452Z,45.43
2022-12-05T20:01:33.635Z,47.90
2022-12-05T20:04:10.453Z,42.67
2022-12-05T20:06:41.651Z,40.73
2022-12-05T20:09:10.527Z,41.93
2022-12-05T20:11:43.807Z,47.27
2022-12-05T20:14:13.880Z,49.30
2022-12-05T20:16:42.312Z,83.80
2022-12-05T20:19:10.056Z,64.73
2022-12-05T20:21:40.407Z,58.97
2022-12-05T20:24:08.449Z,59.50
2022-12-05T20:26:42.162Z,54.83
2022-12-05T20:29:09.887Z,57.33
2022-12-05T20:31:42.381Z,98.67
2022-12-05T20:34:14.474Z,91.17
2022-12-05T20:36:42.716Z,92.20
2022-12-05T20:39:17.554Z,102.13
2022-12-05T20:41:45.414Z,126.30
2022-12-05T20:44:15.191Z,132.27
2022-12-05T20:46:42.599Z,159.50
2022-12-05T20:49:11.672Z,123.90
2022-12-05T20:51:42.007Z,113.40
2022-12-05T20:54:09.459Z,104.53
2022-12-05T20:56:36.914Z,114.00
2022-12-05T20:59:07.579Z,108.57
2022-12-05T21:01:36.934Z,112.47
2022-12-05T21:04:06.972Z,107.57
2022-12-05T21:06:37.434Z,104.60
2022-12-05T21:09:07.184Z,101.07
2022-12-05T21:11:34.659Z,103.90
2022-12-05T21:14:05.302Z,105.60
2022-12-05T21:16:32.691Z,100.57
2022-12-05T21:19:00.842Z,83.17
2022-12-05T21:21:29.235Z,67.73
2022-12-05T21:24:01.927Z,79.70
2022-12-05T21:26:33.905Z,100.60
2022-12-05T21:29:02.346Z,136.57
2022-12-05T21:31:34.985Z,137.13
2022-12-05T21:34:06.033Z,137.27
2022-12-05T21:36:36.495Z,128.70
2022-12-05T21:39:04.519Z,110.37
2022-12-05T21:41:32.390Z,90.40
2022-12-05T21:44:01.241Z,79.83
2022-12-05T21:46:28.752Z,74.63
2022-12-05T21:48:56.427Z,72.87
2022-12-05T21:51:24.522Z,80.83
2022-12-05T21:53:52.599Z,109.47
2022-12-05T21:56:25.866Z,103.63
2022-12-05T21:58:53.743Z,102.40
2022-12-05T22:01:24.525Z,107.13
2022-12-05T22:03:53.933Z,125.53
2022-12-05T22:06:21.698Z,113.13
2022-12-05T22:08:51.054Z,98.43
2022-12-05T22:11:21.444Z,90.97
2022-12-05T22:13:50.133Z,89.90
2022-12-05T22:16:19.056Z,95.13
2022-12-05T22:18:46.911Z,100.97
2022-12-05T22:21:19.420Z,96.10
2022-12-05T22:23:48.092Z,96.90
2022-12-05T22:26:21.483Z,122.13
2022-12-05T22:28:51.476Z,113.10
2022-12-05T22:31:19.829Z,120.70
2022-12-05T22:33:47.904Z,100.10
2022-12-05T22:36:18.362Z,95.13
2022-12-05T22:38:47.960Z,92.97
2022-12-05T22:41:18.229Z,95.37
2022-12-05T22:43:47.589Z,91.83
2022-12-05T22:46:20.765Z,83.60
2022-12-05T22:48:50.170Z,76.27
2022-12-05T22:51:19.794Z,78.57
2022-12-05T22:53:47.094Z,78.27
2022-12-05T22:56:17.368Z,85.87
2022-12-05T22:58:45.825Z,81.30
2022-12-05T23:01:20.153Z,77.03
2022-12-05T23:03:49.924Z,67.10
2022-12-05T23:06:18.220Z,65.20
2022-12-05T23:08:48.215Z,70.47
2022-12-05T23:11:16.798Z,79.00
2022-12-05T23:13:44.583Z,99.67
2022-12-05T23:16:21.412Z,121.60
2022-12-05T23:18:50.877Z,105.53
2022-12-05T23:21:30.146Z,94.30
2022-12-05T23:24:00.477Z,79.97
2022-12-05T23:26:34.463Z,83.90
2022-12-05T23:29:01.866Z,62.13
2022-12-05T23:31:29.317Z,70.73
2022-12-05T23:34:01.450Z,55.70
2022-12-05T23:36:33.185Z,51.27
2022-12-05T23:39:01.283Z,101.60
2022-12-05T23:41:28.798Z,114.67
2022-12-05T23:43:57.095Z,73.80
2022-12-05T23:46:28.626Z,69.73
2022-12-05T23:48:56.445Z,71.33
2022-12-05T23:51:26.914Z,54.53
2022-12-05T23:54:00.060Z,37.80
2022-12-05T23:56:30.169Z,34.17
2022-12-05T23:58:58.196Z,41.57
